SWA3620 KOKC-KLAS
Flight info
| Callsign | SWA3620 |
|---|---|
| Flight time | N/A |
| Altitude | 38000 |
| Route | STPHN3 ZEEWE NOSEW KA33W BUKKO J8 GUP HAHAA RKSTR4 |
| Aircraft | B38M/M-SDE1FGHILORVWXY/HB1 |
Departure
| Time | 2026-04-15 21:03 |
|---|---|
| Airport | OKC Will Rogers World Airport (KOKC) |
Arrival
| Time | N/A |
|---|---|
| Airport | Harry Reid International Airport (KLAS) |
| Time | Latitude | Longitude | Altitude | Speed | Heading |
|---|---|---|---|---|---|
| 2026-04-15 20:29 | 35.39452 | -97.59705 | 1300 ft | 0 kts | 35° |
| 2026-04-15 20:52 | 35.39441 | -97.59716 | 1300 ft | 2 kts | 34° |
| 2026-04-15 20:53 | 35.39427 | -97.59727 | 1300 ft | 2 kts | 35° |
| 2026-04-15 20:53 | 35.39412 | -97.59732 | 1300 ft | 2 kts | 325° |
| 2026-04-15 20:53 | 35.39401 | -97.59717 | 1300 ft | 2 kts | 296° |
| 2026-04-15 20:53 | 35.39396 | -97.59703 | 1300 ft | 1 kts | 290° |
| 2026-04-15 20:54 | 35.39396 | -97.59701 | 1300 ft | 0 kts | 289° |
| 2026-04-15 20:58 | 35.39398 | -97.59708 | 1300 ft | 2 kts | 289° |
| 2026-04-15 20:58 | 35.39410 | -97.59748 | 1302 ft | 9 kts | 288° |
| 2026-04-15 20:58 | 35.39416 | -97.59873 | 1299 ft | 19 kts | 269° |
| 2026-04-15 20:59 | 35.39439 | -97.59989 | 1298 ft | 11 kts | 308° |
| 2026-04-15 20:59 | 35.39500 | -97.60064 | 1297 ft | 14 kts | 317° |
| 2026-04-15 20:59 | 35.39565 | -97.60164 | 1294 ft | 17 kts | 271° |
| 2026-04-15 20:59 | 35.39575 | -97.60276 | 1293 ft | 14 kts | 315° |
| 2026-04-15 21:00 | 35.39654 | -97.60369 | 1291 ft | 17 kts | 319° |
| 2026-04-15 21:00 | 35.39773 | -97.60400 | 1291 ft | 19 kts | 360° |
| 2026-04-15 21:00 | 35.39906 | -97.60401 | 1292 ft | 20 kts | 360° |
| 2026-04-15 21:00 | 35.40044 | -97.60401 | 1295 ft | 20 kts | 360° |
| 2026-04-15 21:01 | 35.40187 | -97.60401 | 1297 ft | 21 kts | 0° |
| 2026-04-15 21:01 | 35.40332 | -97.60401 | 1299 ft | 21 kts | 359° |
| 2026-04-15 21:01 | 35.40480 | -97.60402 | 1299 ft | 22 kts | 360° |
| 2026-04-15 21:01 | 35.40578 | -97.60476 | 1300 ft | 18 kts | 274° |
| 2026-04-15 21:02 | 35.40514 | -97.60574 | 1299 ft | 18 kts | 179° |
| 2026-04-15 21:02 | 35.40295 | -97.60573 | 1298 ft | 64 kts | 180° |
| 2026-04-15 21:02 | 35.39586 | -97.60572 | 1290 ft | 137 kts | 180° |
| 2026-04-15 21:02 | 35.38510 | -97.60570 | 1737 ft | 164 kts | 182° |
| 2026-04-15 21:03 | 35.37354 | -97.60554 | 2643 ft | 171 kts | 183° |
| 2026-04-15 21:03 | 35.36140 | -97.60620 | 3503 ft | 173 kts | 188° |
| 2026-04-15 21:03 | 35.34974 | -97.60971 | 4275 ft | 180 kts | 210° |
| 2026-04-15 21:03 | 35.33988 | -97.62022 | 4941 ft | 196 kts | 237° |
| 2026-04-15 21:04 | 35.33634 | -97.63694 | 5656 ft | 215 kts | 267° |
| 2026-04-15 21:04 | 35.33909 | -97.65600 | 6405 ft | 236 kts | 283° |
| 2026-04-15 21:04 | 35.34391 | -97.67509 | 7536 ft | 234 kts | 285° |
| 2026-04-15 21:04 | 35.35077 | -97.69370 | 8399 ft | 249 kts | 292° |
| 2026-04-15 21:05 | 35.35913 | -97.71281 | 9250 ft | 258 kts | 293° |
| 2026-04-15 21:05 | 35.36699 | -97.73287 | 9972 ft | 265 kts | 283° |
| 2026-04-15 21:05 | 35.37261 | -97.75495 | 10483 ft | 281 kts | 282° |
| 2026-04-15 21:05 | 35.37869 | -97.77862 | 10938 ft | 299 kts | 282° |
| 2026-04-15 21:06 | 35.38518 | -97.80342 | 11566 ft | 310 kts | 282° |
| 2026-04-15 21:06 | 35.39184 | -97.82853 | 12486 ft | 310 kts | 282° |
| 2026-04-15 21:06 | 35.39858 | -97.85380 | 13302 ft | 314 kts | 282° |
| 2026-04-15 21:06 | 35.40542 | -97.87933 | 14080 ft | 317 kts | 282° |
| 2026-04-15 21:07 | 35.41234 | -97.90518 | 14805 ft | 320 kts | 281° |
| 2026-04-15 21:07 | 35.41927 | -97.93109 | 15537 ft | 322 kts | 281° |
| 2026-04-15 21:07 | 35.42626 | -97.95726 | 16258 ft | 324 kts | 281° |
| 2026-04-15 21:07 | 35.43332 | -97.98368 | 16944 ft | 327 kts | 281° |
| 2026-04-15 21:08 | 35.44051 | -98.01062 | 17658 ft | 329 kts | 281° |
| 2026-04-15 21:08 | 35.44765 | -98.03739 | 18325 ft | 332 kts | 280° |
| 2026-04-15 21:08 | 35.45483 | -98.06438 | 18877 ft | 335 kts | 280° |
| 2026-04-15 21:08 | 35.46208 | -98.09163 | 19433 ft | 337 kts | 279° |
| 2026-04-15 21:09 | 35.46938 | -98.11909 | 19979 ft | 341 kts | 279° |
| 2026-04-15 21:09 | 35.47467 | -98.14710 | 20475 ft | 334 kts | 268° |
| 2026-04-15 21:09 | 35.47726 | -98.17562 | 20963 ft | 338 kts | 268° |
| 2026-04-15 21:09 | 35.47993 | -98.20438 | 21506 ft | 341 kts | 268° |
| 2026-04-15 21:10 | 35.48257 | -98.23338 | 22026 ft | 343 kts | 268° |
| 2026-04-15 21:10 | 35.48522 | -98.26267 | 22537 ft | 346 kts | 267° |
| 2026-04-15 21:10 | 35.48787 | -98.29214 | 23040 ft | 349 kts | 267° |
| 2026-04-15 21:10 | 35.49052 | -98.32181 | 23522 ft | 352 kts | 267° |
| 2026-04-15 21:11 | 35.49320 | -98.35176 | 23929 ft | 354 kts | 267° |
| 2026-04-15 21:11 | 35.49588 | -98.38190 | 24344 ft | 357 kts | 267° |
| 2026-04-15 21:11 | 35.49862 | -98.41272 | 24760 ft | 359 kts | 267° |
| 2026-04-15 21:11 | 35.50129 | -98.44292 | 25165 ft | 362 kts | 267° |
| 2026-04-15 21:12 | 35.50401 | -98.47373 | 25566 ft | 364 kts | 267° |
| 2026-04-15 21:12 | 35.50676 | -98.50509 | 25972 ft | 367 kts | 267° |
| 2026-04-15 21:12 | 35.50858 | -98.52578 | 26229 ft | 368 kts | 267° |
| 2026-04-15 21:12 | 35.51225 | -98.56774 | 26745 ft | 372 kts | 267° |
| 2026-04-15 21:13 | 35.51500 | -98.59933 | 27118 ft | 374 kts | 267° |
| 2026-04-15 21:13 | 35.51777 | -98.63121 | 27493 ft | 376 kts | 267° |
| 2026-04-15 21:13 | 35.52054 | -98.66323 | 27860 ft | 379 kts | 267° |
| 2026-04-15 21:13 | 35.52332 | -98.69544 | 28216 ft | 381 kts | 267° |
| 2026-04-15 21:14 | 35.52612 | -98.72791 | 28575 ft | 383 kts | 267° |
| 2026-04-15 21:14 | 35.52887 | -98.75998 | 28921 ft | 386 kts | 267° |
| 2026-04-15 21:14 | 35.53174 | -98.79338 | 29267 ft | 388 kts | 266° |
| 2026-04-15 21:14 | 35.53364 | -98.81560 | 29507 ft | 389 kts | 266° |
| 2026-04-15 21:15 | 35.53739 | -98.85956 | 29929 ft | 392 kts | 266° |
| 2026-04-15 21:15 | 35.53932 | -98.88211 | 30120 ft | 394 kts | 266° |
| 2026-04-15 21:15 | 35.54216 | -98.91561 | 30410 ft | 395 kts | 266° |
| 2026-04-15 21:15 | 35.54500 | -98.94923 | 30718 ft | 396 kts | 266° |
| 2026-04-15 21:16 | 35.54784 | -98.98288 | 31013 ft | 397 kts | 266° |
| 2026-04-15 21:16 | 35.55069 | -99.01673 | 31319 ft | 399 kts | 266° |
| 2026-04-15 21:16 | 35.55353 | -99.05067 | 31643 ft | 399 kts | 266° |
| 2026-04-15 21:16 | 35.55635 | -99.08442 | 32065 ft | 397 kts | 266° |
| 2026-04-15 21:17 | 35.55914 | -99.11806 | 32495 ft | 395 kts | 266° |
| 2026-04-15 21:17 | 35.56171 | -99.15144 | 32912 ft | 389 kts | 263° |
| 2026-04-15 21:17 | 35.56074 | -99.18411 | 33310 ft | 382 kts | 259° |
| 2026-04-15 21:17 | 35.55987 | -99.21668 | 33690 ft | 381 kts | 260° |
| 2026-04-15 21:18 | 35.55919 | -99.24919 | 34043 ft | 380 kts | 260° |
| 2026-04-15 21:18 | 35.55859 | -99.28167 | 34358 ft | 379 kts | 260° |
| 2026-04-15 21:18 | 35.55804 | -99.31399 | 34637 ft | 379 kts | 261° |
| 2026-04-15 21:18 | 35.55750 | -99.34630 | 34906 ft | 378 kts | 261° |
| 2026-04-15 21:19 | 35.55696 | -99.37859 | 35177 ft | 378 kts | 261° |
| 2026-04-15 21:19 | 35.55641 | -99.41079 | 35446 ft | 377 kts | 261° |
| 2026-04-15 21:19 | 35.55585 | -99.44333 | 35701 ft | 376 kts | 261° |
| 2026-04-15 21:19 | 35.55528 | -99.47552 | 35861 ft | 377 kts | 261° |
| 2026-04-15 21:20 | 35.55471 | -99.50767 | 35869 ft | 377 kts | 261° |
| 2026-04-15 21:20 | 35.55354 | -99.57183 | 35865 ft | 375 kts | 261° |
| 2026-04-15 21:21 | 35.55234 | -99.63592 | 35857 ft | 376 kts | 261° |
| 2026-04-15 21:21 | 35.55111 | -99.70002 | 35847 ft | 376 kts | 261° |
| 2026-04-15 21:22 | 35.54984 | -99.76423 | 35837 ft | 376 kts | 261° |
| 2026-04-15 21:22 | 35.54854 | -99.82846 | 35829 ft | 377 kts | 261° |
| 2026-04-15 21:23 | 35.54719 | -99.89288 | 35826 ft | 377 kts | 261° |
| 2026-04-15 21:23 | 35.54582 | -99.95722 | 35826 ft | 378 kts | 261° |
| 2026-04-15 21:24 | 35.54441 | -100.02174 | 35826 ft | 378 kts | 261° |
| 2026-04-15 21:24 | 35.54295 | -100.08664 | 35829 ft | 378 kts | 261° |
| 2026-04-15 21:25 | 35.54147 | -100.15125 | 35826 ft | 379 kts | 261° |
| 2026-04-15 21:25 | 35.53995 | -100.21593 | 35834 ft | 380 kts | 261° |
| 2026-04-15 21:26 | 35.53839 | -100.28077 | 35829 ft | 380 kts | 261° |
| 2026-04-15 21:26 | 35.53679 | -100.34571 | 35841 ft | 381 kts | 261° |
| 2026-04-15 21:27 | 35.53516 | -100.41084 | 35830 ft | 382 kts | 261° |
| 2026-04-15 21:27 | 35.53348 | -100.47641 | 35833 ft | 382 kts | 261° |
| 2026-04-15 21:28 | 35.53177 | -100.54167 | 35832 ft | 383 kts | 262° |
| 2026-04-15 21:28 | 35.53002 | -100.60712 | 35849 ft | 384 kts | 262° |
| 2026-04-15 21:29 | 35.52823 | -100.67267 | 35869 ft | 384 kts | 262° |
| 2026-04-15 21:29 | 35.52640 | -100.73828 | 35894 ft | 385 kts | 262° |
| 2026-04-15 21:30 | 35.52454 | -100.80404 | 35920 ft | 385 kts | 262° |
| 2026-04-15 21:30 | 35.52265 | -100.86981 | 35938 ft | 386 kts | 262° |
| 2026-04-15 21:31 | 35.51975 | -100.96876 | 35950 ft | 387 kts | 262° |
| 2026-04-15 21:32 | 35.51996 | -101.06880 | 35947 ft | 389 kts | 264° |
| 2026-04-15 21:32 | 35.52032 | -101.13484 | 35933 ft | 390 kts | 264° |
| 2026-04-15 21:33 | 35.52062 | -101.20178 | 35917 ft | 390 kts | 264° |
| 2026-04-15 21:33 | 35.52088 | -101.26838 | 35909 ft | 390 kts | 264° |
| 2026-04-15 21:34 | 35.52110 | -101.33504 | 35913 ft | 391 kts | 264° |
| 2026-04-15 21:34 | 35.52129 | -101.40179 | 35921 ft | 391 kts | 264° |
| 2026-04-15 21:35 | 35.52144 | -101.46858 | 35917 ft | 391 kts | 264° |
| 2026-04-15 21:35 | 35.52155 | -101.53541 | 35910 ft | 392 kts | 265° |
| 2026-04-15 21:36 | 35.52163 | -101.60228 | 35900 ft | 392 kts | 265° |
| 2026-04-15 21:36 | 35.52167 | -101.66962 | 35886 ft | 392 kts | 265° |
| 2026-04-15 21:37 | 35.52167 | -101.73658 | 35888 ft | 392 kts | 265° |
| 2026-04-15 21:37 | 35.52164 | -101.80356 | 35886 ft | 392 kts | 265° |
| 2026-04-15 21:38 | 35.52157 | -101.87060 | 35884 ft | 393 kts | 265° |
| 2026-04-15 21:38 | 35.52146 | -101.93767 | 35879 ft | 393 kts | 265° |
| 2026-04-15 21:39 | 35.52131 | -102.00482 | 35887 ft | 393 kts | 265° |
| 2026-04-15 21:39 | 35.52113 | -102.07205 | 35887 ft | 394 kts | 265° |
| 2026-04-15 21:40 | 35.52091 | -102.13933 | 35882 ft | 394 kts | 265° |
| 2026-04-15 21:40 | 35.52065 | -102.20658 | 35884 ft | 395 kts | 265° |
| 2026-04-15 21:41 | 35.52036 | -102.27400 | 35888 ft | 395 kts | 265° |
| 2026-04-15 21:41 | 35.52002 | -102.34186 | 35883 ft | 395 kts | 265° |
| 2026-04-15 21:42 | 35.51964 | -102.40937 | 35892 ft | 396 kts | 265° |
| 2026-04-15 21:42 | 35.51924 | -102.47691 | 35895 ft | 396 kts | 265° |
| 2026-04-15 21:43 | 35.51879 | -102.54460 | 35899 ft | 396 kts | 265° |
| 2026-04-15 21:43 | 35.51839 | -102.60084 | 35897 ft | 397 kts | 265° |
| 2026-04-15 21:44 | 35.51786 | -102.66911 | 35902 ft | 397 kts | 265° |
| 2026-04-15 21:44 | 35.51731 | -102.73685 | 35902 ft | 398 kts | 265° |
| 2026-04-15 21:45 | 35.51671 | -102.80467 | 35896 ft | 398 kts | 265° |
| 2026-04-15 21:45 | 35.51608 | -102.87272 | 35896 ft | 398 kts | 265° |
| 2026-04-15 21:46 | 35.51540 | -102.94074 | 35901 ft | 398 kts | 265° |
| 2026-04-15 21:46 | 35.51469 | -103.00875 | 35890 ft | 399 kts | 265° |
| 2026-04-15 21:47 | 35.51395 | -103.07686 | 35889 ft | 400 kts | 265° |
| 2026-04-15 21:47 | 35.51315 | -103.14521 | 35881 ft | 400 kts | 266° |
| 2026-04-15 21:48 | 35.51232 | -103.21352 | 35870 ft | 401 kts | 266° |
| 2026-04-15 21:48 | 35.51145 | -103.28194 | 35881 ft | 401 kts | 266° |
| 2026-04-15 21:49 | 35.51054 | -103.35086 | 35884 ft | 401 kts | 266° |
| 2026-04-15 21:49 | 35.50959 | -103.41941 | 35870 ft | 402 kts | 266° |
| 2026-04-15 21:50 | 35.50860 | -103.48818 | 35877 ft | 403 kts | 266° |
| 2026-04-15 21:50 | 35.50757 | -103.55709 | 35877 ft | 404 kts | 266° |
| 2026-04-15 21:51 | 35.50650 | -103.62606 | 35892 ft | 405 kts | 266° |
| 2026-04-15 21:51 | 35.50538 | -103.69519 | 35880 ft | 406 kts | 266° |
| 2026-04-15 21:52 | 35.50424 | -103.76433 | 35878 ft | 406 kts | 266° |
| 2026-04-15 21:52 | 35.50306 | -103.83379 | 35877 ft | 407 kts | 266° |
| 2026-04-15 21:53 | 35.50184 | -103.90312 | 35868 ft | 407 kts | 266° |
| 2026-04-15 21:53 | 35.50058 | -103.97266 | 35874 ft | 408 kts | 266° |
| 2026-04-15 21:54 | 35.50166 | -104.04275 | 35864 ft | 409 kts | 269° |
| 2026-04-15 21:54 | 35.50335 | -104.11255 | 35865 ft | 409 kts | 269° |
| 2026-04-15 21:55 | 35.50492 | -104.18238 | 35869 ft | 409 kts | 269° |
| 2026-04-15 21:55 | 35.50645 | -104.25233 | 35865 ft | 410 kts | 269° |
| 2026-04-15 21:56 | 35.50793 | -104.32229 | 35863 ft | 410 kts | 269° |
| 2026-04-15 21:56 | 35.50938 | -104.39237 | 35866 ft | 411 kts | 269° |
| 2026-04-15 21:57 | 35.51079 | -104.46255 | 35873 ft | 411 kts | 269° |
| 2026-04-15 21:57 | 35.51215 | -104.53269 | 35872 ft | 412 kts | 269° |
| 2026-04-15 21:58 | 35.51348 | -104.60303 | 35871 ft | 412 kts | 269° |
| 2026-04-15 21:58 | 35.51477 | -104.67341 | 35875 ft | 413 kts | 270° |
| 2026-04-15 21:59 | 35.51602 | -104.74386 | 35885 ft | 413 kts | 270° |
| 2026-04-15 21:59 | 35.51723 | -104.81451 | 35929 ft | 414 kts | 270° |
| 2026-04-15 22:00 | 35.51840 | -104.88553 | 35951 ft | 414 kts | 270° |
| 2026-04-15 22:00 | 35.51956 | -104.95622 | 35986 ft | 415 kts | 270° |
| 2026-04-15 22:01 | 35.52063 | -105.02712 | 36021 ft | 415 kts | 270° |
| 2026-04-15 22:01 | 35.52167 | -105.09793 | 36027 ft | 416 kts | 270° |
| 2026-04-15 22:02 | 35.52268 | -105.16910 | 36032 ft | 417 kts | 270° |
| 2026-04-15 22:02 | 35.52365 | -105.24034 | 36024 ft | 417 kts | 270° |
| 2026-04-15 22:03 | 35.52458 | -105.31158 | 36008 ft | 418 kts | 270° |
| 2026-04-15 22:03 | 35.52547 | -105.38303 | 36005 ft | 418 kts | 270° |
| 2026-04-15 22:04 | 35.52632 | -105.45446 | 35987 ft | 419 kts | 270° |
| 2026-04-15 22:04 | 35.52712 | -105.52599 | 35980 ft | 419 kts | 270° |
| 2026-04-15 22:05 | 35.52789 | -105.59806 | 35973 ft | 420 kts | 270° |
| 2026-04-15 22:05 | 35.52861 | -105.66954 | 35985 ft | 420 kts | 270° |
| 2026-04-15 22:06 | 35.52929 | -105.74113 | 36004 ft | 420 kts | 270° |
| 2026-04-15 22:06 | 35.52993 | -105.81302 | 36024 ft | 420 kts | 270° |
| 2026-04-15 22:07 | 35.53053 | -105.88477 | 36051 ft | 421 kts | 269° |
| 2026-04-15 22:07 | 35.53108 | -105.95596 | 36068 ft | 421 kts | 270° |
| 2026-04-15 22:08 | 35.53159 | -106.02784 | 36089 ft | 422 kts | 269° |
| 2026-04-15 22:08 | 35.53206 | -106.09986 | 36091 ft | 421 kts | 269° |
| 2026-04-15 22:09 | 35.53249 | -106.17182 | 36085 ft | 422 kts | 269° |
| 2026-04-15 22:09 | 35.53287 | -106.24386 | 36069 ft | 422 kts | 269° |
| 2026-04-15 22:10 | 35.53321 | -106.31635 | 36047 ft | 422 kts | 269° |
| 2026-04-15 22:10 | 35.53346 | -106.37613 | 36029 ft | 421 kts | 269° |
| 2026-04-15 22:11 | 35.53377 | -106.46022 | 36010 ft | 422 kts | 269° |
| 2026-04-15 22:11 | 35.53398 | -106.53211 | 35994 ft | 421 kts | 269° |
| 2026-04-15 22:12 | 35.53415 | -106.60400 | 36002 ft | 421 kts | 269° |
| 2026-04-15 22:12 | 35.53428 | -106.67592 | 36005 ft | 421 kts | 269° |
| 2026-04-15 22:13 | 35.53436 | -106.74775 | 36011 ft | 421 kts | 269° |
| 2026-04-15 22:13 | 35.53440 | -106.80804 | 36008 ft | 421 kts | 269° |